sensor_id;sensor_type;location;lat;lon;timestamp;temperature;humidity
73586;DHT22;61865;50.232;18.614;2023-05-29T00:01:19;8.00;99.90
73586;DHT22;61865;50.232;18.614;2023-05-29T00:03:41;8.00;99.90
73586;DHT22;61865;50.232;18.614;2023-05-29T00:06:04;7.90;99.90
73586;DHT22;61865;50.232;18.614;2023-05-29T00:08:26;7.60;99.90
73586;DHT22;61865;50.232;18.614;2023-05-29T00:10:49;7.60;99.90
73586;DHT22;61865;50.232;18.614;2023-05-29T00:13:11;7.50;99.90
73586;DHT22;61865;50.232;18.614;2023-05-29T00:15:33;7.40;99.90
73586;DHT22;61865;50.232;18.614;2023-05-29T00:17:55;7.30;99.90
73586;DHT22;61865;50.232;18.614;2023-05-29T00:20:17;7.30;99.90
73586;DHT22;61865;50.232;18.614;2023-05-29T00:22:40;7.30;99.90
73586;DHT22;61865;50.232;18.614;2023-05-29T00:25:02;7.30;99.90
73586;DHT22;61865;50.232;18.614;2023-05-29T00:27:26;7.30;99.90
73586;DHT22;61865;50.232;18.614;2023-05-29T00:29:48;7.30;99.90
73586;DHT22;61865;50.232;18.614;2023-05-29T00:32:10;7.30;99.90
73586;DHT22;61865;50.232;18.614;2023-05-29T00:34:32;7.30;99.90
73586;DHT22;61865;50.232;18.614;2023-05-29T00:36:54;7.40;99.90
73586;DHT22;61865;50.232;18.614;2023-05-29T00:39:16;7.40;99.90
73586;DHT22;61865;50.232;18.614;2023-05-29T00:41:38;7.30;99.90
73586;DHT22;61865;50.232;18.614;2023-05-29T00:44:02;7.20;99.90
73586;DHT22;61865;50.232;18.614;2023-05-29T00:46:24;7.20;99.90
73586;DHT22;61865;50.232;18.614;2023-05-29T00:48:46;7.20;99.90
73586;DHT22;61865;50.232;18.614;2023-05-29T00:51:10;7.30;99.90
73586;DHT22;61865;50.232;18.614;2023-05-29T00:53:34;7.30;99.90
73586;DHT22;61865;50.232;18.614;2023-05-29T00:55:56;7.50;99.90
73586;DHT22;61865;50.232;18.614;2023-05-29T00:58:20;7.60;99.90
73586;DHT22;61865;50.232;18.614;2023-05-29T01:00:43;7.80;99.90
73586;DHT22;61865;50.232;18.614;2023-05-29T01:03:06;7.90;99.90
73586;DHT22;61865;50.232;18.614;2023-05-29T01:05:29;7.90;99.90
73586;DHT22;61865;50.232;18.614;2023-05-29T01:07:51;8.00;99.90
73586;DHT22;61865;50.232;18.614;2023-05-29T01:10:13;7.90;99.90
73586;DHT22;61865;50.232;18.614;2023-05-29T01:12:40;7.80;99.90
73586;DHT22;61865;50.232;18.614;2023-05-29T01:15:14;7.80;99.90
73586;DHT22;61865;50.232;18.614;2023-05-29T01:17:46;7.80;99.90
73586;DHT22;61865;50.232;18.614;2023-05-29T01:20:18;7.80;99.90
73586;DHT22;61865;50.232;18.614;2023-05-29T01:22:58;7.70;99.90
73586;DHT22;61865;50.232;18.614;2023-05-29T01:25:39;7.60;99.90
73586;DHT22;61865;50.232;18.614;2023-05-29T01:28:07;7.40;99.90
73586;DHT22;61865;50.232;18.614;2023-05-29T01:30:31;7.30;99.90
73586;DHT22;61865;50.232;18.614;2023-05-29T01:32:54;7.30;99.90
73586;DHT22;61865;50.232;18.614;2023-05-29T01:35:16;7.20;99.90
73586;DHT22;61865;50.232;18.614;2023-05-29T01:37:38;7.00;99.90
73586;DHT22;61865;50.232;18.614;2023-05-29T01:40:01;6.80;99.90
73586;DHT22;61865;50.232;18.614;2023-05-29T01:42:26;6.60;99.90
73586;DHT22;61865;50.232;18.614;2023-05-29T01:44:50;6.60;99.90
73586;DHT22;61865;50.232;18.614;2023-05-29T01:47:12;6.50;99.90
73586;DHT22;61865;50.232;18.614;2023-05-29T01:49:35;6.40;99.90
73586;DHT22;61865;50.232;18.614;2023-05-29T01:51:58;6.40;99.90
73586;DHT22;61865;50.232;18.614;2023-05-29T01:54:20;6.50;99.90
73586;DHT22;61865;50.232;18.614;2023-05-29T01:56:43;6.40;99.90
73586;DHT22;61865;50.232;18.614;2023-05-29T01:59:06;6.30;99.90
73586;DHT22;61865;50.232;18.614;2023-05-29T02:01:30;6.10;99.90
73586;DHT22;61865;50.232;18.614;2023-05-29T02:03:52;6.00;99.90
73586;DHT22;61865;50.232;18.614;2023-05-29T02:06:14;5.90;99.90
73586;DHT22;61865;50.232;18.614;2023-05-29T02:08:36;5.80;99.90
73586;DHT22;61865;50.232;18.614;2023-05-29T02:10:58;5.70;99.90
73586;DHT22;61865;50.232;18.614;2023-05-29T02:13:21;5.70;99.90
73586;DHT22;61865;50.232;18.614;2023-05-29T02:15:43;5.70;99.90
73586;DHT22;61865;50.232;18.614;2023-05-29T02:18:08;5.60;99.90
73586;DHT22;61865;50.232;18.614;2023-05-29T02:20:31;5.60;99.90
73586;DHT22;61865;50.232;18.614;2023-05-29T02:22:53;5.60;99.90
73586;DHT22;61865;50.232;18.614;2023-05-29T02:25:15;5.60;99.90
73586;DHT22;61865;50.232;18.614;2023-05-29T02:27:37;5.70;99.90
73586;DHT22;61865;50.232;18.614;2023-05-29T02:29:59;5.60;99.90
73586;DHT22;61865;50.232;18.614;2023-05-29T02:32:21;5.50;99.90
73586;DHT22;61865;50.232;18.614;2023-05-29T02:34:44;5.40;99.90
73586;DHT22;61865;50.232;18.614;2023-05-29T02:37:06;5.30;99.90
73586;DHT22;61865;50.232;18.614;2023-05-29T02:39:28;5.20;99.90
73586;DHT22;61865;50.232;18.614;2023-05-29T02:41:50;5.30;99.90
73586;DHT22;61865;50.232;18.614;2023-05-29T02:44:12;5.30;99.90
73586;DHT22;61865;50.232;18.614;2023-05-29T02:46:34;5.30;99.90
73586;DHT22;61865;50.232;18.614;2023-05-29T02:48:56;5.20;99.90
73586;DHT22;61865;50.232;18.614;2023-05-29T02:51:20;5.20;99.90
73586;DHT22;61865;50.232;18.614;2023-05-29T02:53:42;5.30;99.90
73586;DHT22;61865;50.232;18.614;2023-05-29T02:56:05;5.40;99.90
73586;DHT22;61865;50.232;18.614;2023-05-29T02:58:27;5.40;99.90
73586;DHT22;61865;50.232;18.614;2023-05-29T03:00:49;5.40;99.90
73586;DHT22;61865;50.232;18.614;2023-05-29T03:03:13;5.50;99.90
73586;DHT22;61865;50.232;18.614;2023-05-29T03:05:35;5.50;99.90
73586;DHT22;61865;50.232;18.614;2023-05-29T03:07:58;5.40;99.90
73586;DHT22;61865;50.232;18.614;2023-05-29T03:10:20;5.40;99.90
73586;DHT22;61865;50.232;18.614;2023-05-29T03:12:42;5.40;99.90
73586;DHT22;61865;50.232;18.614;2023-05-29T03:15:06;5.50;99.90
73586;DHT22;61865;50.232;18.614;2023-05-29T03:17:28;5.50;99.90
73586;DHT22;61865;50.232;18.614;2023-05-29T03:19:50;5.40;99.90
73586;DHT22;61865;50.232;18.614;2023-05-29T03:22:12;5.50;99.90
73586;DHT22;61865;50.232;18.614;2023-05-29T03:24:36;5.50;99.90
73586;DHT22;61865;50.232;18.614;2023-05-29T03:26:58;5.60;99.90
73586;DHT22;61865;50.232;18.614;2023-05-29T03:29:21;5.60;99.90
73586;DHT22;61865;50.232;18.614;2023-05-29T03:31:43;5.70;99.90
73586;DHT22;61865;50.232;18.614;2023-05-29T03:34:05;5.90;99.90
73586;DHT22;61865;50.232;18.614;2023-05-29T03:36:27;6.10;99.90
73586;DHT22;61865;50.232;18.614;2023-05-29T03:38:49;6.10;99.90
73586;DHT22;61865;50.232;18.614;2023-05-29T03:41:12;6.20;99.90
73586;DHT22;61865;50.232;18.614;2023-05-29T03:43:34;6.20;99.90
73586;DHT22;61865;50.232;18.614;2023-05-29T03:45:56;6.30;99.90
73586;DHT22;61865;50.232;18.614;2023-05-29T03:48:18;6.30;99.90
73586;DHT22;61865;50.232;18.614;2023-05-29T03:50:40;6.40;99.90
73586;DHT22;61865;50.232;18.614;2023-05-29T03:53:02;6.60;99.90
73586;DHT22;61865;50.232;18.614;2023-05-29T03:55:26;6.80;99.90
73586;DHT22;61865;50.232;18.614;2023-05-29T03:57:50;6.90;99.90
73586;DHT22;61865;50.232;18.614;2023-05-29T04:00:12;7.10;99.90
73586;DHT22;61865;50.232;18.614;2023-05-29T04:02:34;7.20;99.90
73586;DHT22;61865;50.232;18.614;2023-05-29T04:04:56;7.30;99.90
73586;DHT22;61865;50.232;18.614;2023-05-29T04:07:18;7.50;99.90
73586;DHT22;61865;50.232;18.614;2023-05-29T04:09:41;7.60;99.90
73586;DHT22;61865;50.232;18.614;2023-05-29T04:12:03;7.80;99.90
73586;DHT22;61865;50.232;18.614;2023-05-29T04:14:27;8.00;99.90
73586;DHT22;61865;50.232;18.614;2023-05-29T04:16:49;8.30;99.90
73586;DHT22;61865;50.232;18.614;2023-05-29T04:19:11;8.60;99.90
73586;DHT22;61865;50.232;18.614;2023-05-29T04:21:33;8.90;99.90
73586;DHT22;61865;50.232;18.614;2023-05-29T04:23:56;9.20;99.90
73586;DHT22;61865;50.232;18.614;2023-05-29T04:26:18;9.40;99.90
73586;DHT22;61865;50.232;18.614;2023-05-29T04:28:41;9.60;99.90
73586;DHT22;61865;50.232;18.614;2023-05-29T04:31:05;9.80;99.90
73586;DHT22;61865;50.232;18.614;2023-05-29T04:33:27;10.00;99.90
73586;DHT22;61865;50.232;18.614;2023-05-29T04:35:50;10.20;99.90
73586;DHT22;61865;50.232;18.614;2023-05-29T04:38:13;10.40;99.90
73586;DHT22;61865;50.232;18.614;2023-05-29T04:40:35;10.60;99.90
73586;DHT22;61865;50.232;18.614;2023-05-29T04:42:58;10.80;99.90
73586;DHT22;61865;50.232;18.614;2023-05-29T04:45:21;11.00;99.90
73586;DHT22;61865;50.232;18.614;2023-05-29T04:47:44;11.10;99.90
73586;DHT22;61865;50.232;18.614;2023-05-29T04:50:06;11.40;99.90
73586;DHT22;61865;50.232;18.614;2023-05-29T04:52:30;11.50;99.90
73586;DHT22;61865;50.232;18.614;2023-05-29T04:54:53;11.70;99.90
73586;DHT22;61865;50.232;18.614;2023-05-29T04:57:15;12.00;99.90
73586;DHT22;61865;50.232;18.614;2023-05-29T04:59:37;12.30;99.90
73586;DHT22;61865;50.232;18.614;2023-05-29T05:02:00;12.50;99.90
73586;DHT22;61865;50.232;18.614;2023-05-29T05:04:23;12.60;99.90
73586;DHT22;61865;50.232;18.614;2023-05-29T05:06:45;12.80;99.90
73586;DHT22;61865;50.232;18.614;2023-05-29T05:09:07;12.80;99.90
73586;DHT22;61865;50.232;18.614;2023-05-29T05:11:30;12.60;99.90
73586;DHT22;61865;50.232;18.614;2023-05-29T05:13:52;12.60;99.90
73586;DHT22;61865;50.232;18.614;2023-05-29T05:16:14;12.70;99.90
73586;DHT22;61865;50.232;18.614;2023-05-29T05:18:37;12.90;99.90
73586;DHT22;61865;50.232;18.614;2023-05-29T05:21:00;13.20;99.90
73586;DHT22;61865;50.232;18.614;2023-05-29T05:23:23;13.10;99.90
73586;DHT22;61865;50.232;18.614;2023-05-29T05:25:45;13.30;99.90
73586;DHT22;61865;50.232;18.614;2023-05-29T05:28:08;13.40;99.90
73586;DHT22;61865;50.232;18.614;2023-05-29T05:30:31;13.60;99.90
73586;DHT22;61865;50.232;18.614;2023-05-29T05:32:53;13.80;99.90
73586;DHT22;61865;50.232;18.614;2023-05-29T05:35:15;14.00;99.90
73586;DHT22;61865;50.232;18.614;2023-05-29T05:37:38;14.20;99.90
73586;DHT22;61865;50.232;18.614;2023-05-29T05:40:00;14.40;99.90
73586;DHT22;61865;50.232;18.614;2023-05-29T05:42:24;14.60;99.30
73586;DHT22;61865;50.232;18.614;2023-05-29T05:44:46;14.70;98.10
73586;DHT22;61865;50.232;18.614;2023-05-29T05:47:08;14.90;99.90
73586;DHT22;61865;50.232;18.614;2023-05-29T05:49:30;15.20;98.80
73586;DHT22;61865;50.232;18.614;2023-05-29T05:51:52;15.50;99.90
73586;DHT22;61865;50.232;18.614;2023-05-29T05:54:15;15.60;95.40
73586;DHT22;61865;50.232;18.614;2023-05-29T05:56:37;15.80;97.00
73586;DHT22;61865;50.232;18.614;2023-05-29T05:59:00;15.80;94.90
73586;DHT22;61865;50.232;18.614;2023-05-29T06:01:22;15.80;95.70
73586;DHT22;61865;50.232;18.614;2023-05-29T06:03:44;15.90;96.20
73586;DHT22;61865;50.232;18.614;2023-05-29T06:06:06;16.00;92.20
73586;DHT22;61865;50.232;18.614;2023-05-29T06:08:29;16.20;92.50
73586;DHT22;61865;50.232;18.614;2023-05-29T06:10:53;16.30;86.40
73586;DHT22;61865;50.232;18.614;2023-05-29T06:13:15;16.50;88.50
73586;DHT22;61865;50.232;18.614;2023-05-29T06:15:37;16.70;79.50
73586;DHT22;61865;50.232;18.614;2023-05-29T06:17:59;16.90;80.50
73586;DHT22;61865;50.232;18.614;2023-05-29T06:20:21;16.90;84.10
73586;DHT22;61865;50.232;18.614;2023-05-29T06:22:43;17.00;81.50
73586;DHT22;61865;50.232;18.614;2023-05-29T06:25:10;17.10;73.10
73586;DHT22;61865;50.232;18.614;2023-05-29T06:27:34;17.10;70.50
73586;DHT22;61865;50.232;18.614;2023-05-29T06:29:56;17.10;72.60
73586;DHT22;61865;50.232;18.614;2023-05-29T06:32:18;17.00;75.10
73586;DHT22;61865;50.232;18.614;2023-05-29T06:34:40;17.00;75.40
73586;DHT22;61865;50.232;18.614;2023-05-29T06:37:02;17.10;78.30
73586;DHT22;61865;50.232;18.614;2023-05-29T06:39:23;16.90;77.40
73586;DHT22;61865;50.232;18.614;2023-05-29T06:41:46;16.80;77.70
73586;DHT22;61865;50.232;18.614;2023-05-29T06:44:09;16.70;79.00
73586;DHT22;61865;50.232;18.614;2023-05-29T06:46:31;16.60;74.40
73586;DHT22;61865;50.232;18.614;2023-05-29T06:48:53;16.60;75.90
73586;DHT22;61865;50.232;18.614;2023-05-29T06:51:17;16.80;74.80
73586;DHT22;61865;50.232;18.614;2023-05-29T06:53:39;17.00;71.60
73586;DHT22;61865;50.232;18.614;2023-05-29T06:56:01;17.30;72.60
73586;DHT22;61865;50.232;18.614;2023-05-29T06:58:23;17.50;66.10
73586;DHT22;61865;50.232;18.614;2023-05-29T07:04:04;17.30;64.90
73586;DHT22;61865;50.232;18.614;2023-05-29T07:06:27;17.50;67.00
73586;DHT22;61865;50.232;18.614;2023-05-29T07:08:49;17.70;63.50
73586;DHT22;61865;50.232;18.614;2023-05-29T07:11:11;17.70;62.90
73586;DHT22;61865;50.232;18.614;2023-05-29T07:13:33;17.80;61.90
73586;DHT22;61865;50.232;18.614;2023-05-29T07:15:56;17.70;61.50
73586;DHT22;61865;50.232;18.614;2023-05-29T07:18:18;17.80;61.60
73586;DHT22;61865;50.232;18.614;2023-05-29T07:20:41;17.80;63.70
73586;DHT22;61865;50.232;18.614;2023-05-29T07:23:03;17.70;63.60
73586;DHT22;61865;50.232;18.614;2023-05-29T07:25:25;17.70;62.50
73586;DHT22;61865;50.232;18.614;2023-05-29T07:27:48;17.80;62.90
73586;DHT22;61865;50.232;18.614;2023-05-29T07:30:11;17.90;59.30
73586;DHT22;61865;50.232;18.614;2023-05-29T07:32:33;18.10;61.10
73586;DHT22;61865;50.232;18.614;2023-05-29T07:34:55;18.40;61.70
73586;DHT22;61865;50.232;18.614;2023-05-29T07:37:18;18.50;59.20
73586;DHT22;61865;50.232;18.614;2023-05-29T07:39:40;18.30;60.70
73586;DHT22;61865;50.232;18.614;2023-05-29T07:42:03;18.40;64.10
73586;DHT22;61865;50.232;18.614;2023-05-29T07:44:27;18.60;53.90
73586;DHT22;61865;50.232;18.614;2023-05-29T07:46:49;18.80;50.30
73586;DHT22;61865;50.232;18.614;2023-05-29T07:49:13;18.90;48.50
73586;DHT22;61865;50.232;18.614;2023-05-29T07:51:36;19.00;46.70
73586;DHT22;61865;50.232;18.614;2023-05-29T07:53:59;19.00;46.60
73586;DHT22;61865;50.232;18.614;2023-05-29T07:56:21;19.00;48.30
73586;DHT22;61865;50.232;18.614;2023-05-29T07:58:43;19.00;47.80
73586;DHT22;61865;50.232;18.614;2023-05-29T08:01:05;19.10;46.30
73586;DHT22;61865;50.232;18.614;2023-05-29T08:03:27;19.10;44.80
73586;DHT22;61865;50.232;18.614;2023-05-29T08:05:49;19.20;46.20
73586;DHT22;61865;50.232;18.614;2023-05-29T08:08:11;19.10;45.30
73586;DHT22;61865;50.232;18.614;2023-05-29T08:13:52;19.10;47.90
73586;DHT22;61865;50.232;18.614;2023-05-29T08:16:14;19.10;42.40
73586;DHT22;61865;50.232;18.614;2023-05-29T08:18:37;19.10;43.50
73586;DHT22;61865;50.232;18.614;2023-05-29T08:20:59;19.40;44.30
73586;DHT22;61865;50.232;18.614;2023-05-29T08:23:21;19.50;40.60
73586;DHT22;61865;50.232;18.614;2023-05-29T08:25:43;19.40;39.30
73586;DHT22;61865;50.232;18.614;2023-05-29T08:28:05;19.30;38.70
73586;DHT22;61865;50.232;18.614;2023-05-29T08:30:29;19.40;42.30
73586;DHT22;61865;50.232;18.614;2023-05-29T08:32:51;19.40;37.70
73586;DHT22;61865;50.232;18.614;2023-05-29T08:35:13;19.50;37.70
73586;DHT22;61865;50.232;18.614;2023-05-29T08:37:35;19.50;38.70
73586;DHT22;61865;50.232;18.614;2023-05-29T08:39:57;19.60;38.60
73586;DHT22;61865;50.232;18.614;2023-05-29T08:42:22;19.90;35.80
73586;DHT22;61865;50.232;18.614;2023-05-29T08:44:48;19.90;33.70
73586;DHT22;61865;50.232;18.614;2023-05-29T08:47:13;19.90;31.60
73586;DHT22;61865;50.232;18.614;2023-05-29T08:49:42;19.90;35.80
73586;DHT22;61865;50.232;18.614;2023-05-29T08:52:09;20.00;30.10
73586;DHT22;61865;50.232;18.614;2023-05-29T08:54:33;20.00;30.00
73586;DHT22;61865;50.232;18.614;2023-05-29T08:56:56;19.80;31.30
73586;DHT22;61865;50.232;18.614;2023-05-29T08:59:19;19.90;29.00
73586;DHT22;61865;50.232;18.614;2023-05-29T09:01:41;20.00;33.70
73586;DHT22;61865;50.232;18.614;2023-05-29T09:04:05;20.20;30.10
73586;DHT22;61865;50.232;18.614;2023-05-29T09:06:28;20.20;28.10
73586;DHT22;61865;50.232;18.614;2023-05-29T09:08:51;20.20;30.20
73586;DHT22;61865;50.232;18.614;2023-05-29T09:11:13;20.20;30.80
73586;DHT22;61865;50.232;18.614;2023-05-29T09:13:35;20.20;29.40
73586;DHT22;61865;50.232;18.614;2023-05-29T09:15:58;20.30;28.90
73586;DHT22;61865;50.232;18.614;2023-05-29T09:18:22;20.20;29.00
73586;DHT22;61865;50.232;18.614;2023-05-29T09:20:45;20.20;27.60
73586;DHT22;61865;50.232;18.614;2023-05-29T09:23:08;20.10;28.50
73586;DHT22;61865;50.232;18.614;2023-05-29T09:25:31;20.10;27.70
73586;DHT22;61865;50.232;18.614;2023-05-29T09:27:58;20.20;28.20
73586;DHT22;61865;50.232;18.614;2023-05-29T09:30:32;20.40;29.10
73586;DHT22;61865;50.232;18.614;2023-05-29T09:32:54;20.50;27.50
73586;DHT22;61865;50.232;18.614;2023-05-29T09:35:19;20.50;28.20
73586;DHT22;61865;50.232;18.614;2023-05-29T09:37:43;20.50;27.00
73586;DHT22;61865;50.232;18.614;2023-05-29T09:40:06;20.50;27.40
73586;DHT22;61865;50.232;18.614;2023-05-29T09:42:30;20.60;26.20
73586;DHT22;61865;50.232;18.614;2023-05-29T09:44:52;20.70;27.30
73586;DHT22;61865;50.232;18.614;2023-05-29T09:47:16;20.90;27.20
73586;DHT22;61865;50.232;18.614;2023-05-29T09:49:41;21.10;27.80
73586;DHT22;61865;50.232;18.614;2023-05-29T09:52:04;21.20;28.10
73586;DHT22;61865;50.232;18.614;2023-05-29T09:54:29;21.10;26.40
73586;DHT22;61865;50.232;18.614;2023-05-29T09:56:53;21.00;24.90
73586;DHT22;61865;50.232;18.614;2023-05-29T09:59:15;21.00;26.30
73586;DHT22;61865;50.232;18.614;2023-05-29T10:01:40;21.20;27.20
73586;DHT22;61865;50.232;18.614;2023-05-29T10:04:04;21.20;26.80
73586;DHT22;61865;50.232;18.614;2023-05-29T10:06:27;21.30;27.00
73586;DHT22;61865;50.232;18.614;2023-05-29T10:08:52;21.20;26.20
73586;DHT22;61865;50.232;18.614;2023-05-29T10:11:21;21.10;25.30
73586;DHT22;61865;50.232;18.614;2023-05-29T10:13:48;21.20;26.60
73586;DHT22;61865;50.232;18.614;2023-05-29T10:16:12;21.10;27.20
73586;DHT22;61865;50.232;18.614;2023-05-29T10:18:37;21.10;26.80
73586;DHT22;61865;50.232;18.614;2023-05-29T10:21:00;20.90;26.00
73586;DHT22;61865;50.232;18.614;2023-05-29T10:23:24;20.80;28.30
73586;DHT22;61865;50.232;18.614;2023-05-29T10:25:48;20.90;25.90
73586;DHT22;61865;50.232;18.614;2023-05-29T10:28:12;21.10;25.30
73586;DHT22;61865;50.232;18.614;2023-05-29T10:30:39;21.10;25.30
73586;DHT22;61865;50.232;18.614;2023-05-29T10:35:58;21.30;28.20
73586;DHT22;61865;50.232;18.614;2023-05-29T10:38:24;21.40;26.20
73586;DHT22;61865;50.232;18.614;2023-05-29T10:40:47;21.30;25.20
73586;DHT22;61865;50.232;18.614;2023-05-29T10:43:09;21.10;24.50
73586;DHT22;61865;50.232;18.614;2023-05-29T10:45:52;21.10;24.90
73586;DHT22;61865;50.232;18.614;2023-05-29T10:48:42;21.10;24.20
73586;DHT22;61865;50.232;18.614;2023-05-29T10:51:05;21.20;26.50
73586;DHT22;61865;50.232;18.614;2023-05-29T10:53:32;21.20;25.00
73586;DHT22;61865;50.232;18.614;2023-05-29T10:55:54;21.30;25.20
73586;DHT22;61865;50.232;18.614;2023-05-29T10:58:18;21.40;23.70
73586;DHT22;61865;50.232;18.614;2023-05-29T11:00:41;21.50;24.30
73586;DHT22;61865;50.232;18.614;2023-05-29T11:03:07;21.30;24.40
73586;DHT22;61865;50.232;18.614;2023-05-29T11:05:29;21.10;24.60
73586;DHT22;61865;50.232;18.614;2023-05-29T11:07:53;21.10;24.10
73586;DHT22;61865;50.232;18.614;2023-05-29T11:10:15;21.30;24.80
73586;DHT22;61865;50.232;18.614;2023-05-29T11:12:55;21.40;25.10
73586;DHT22;61865;50.232;18.614;2023-05-29T11:15:18;21.50;25.80
73586;DHT22;61865;50.232;18.614;2023-05-29T11:17:45;21.40;25.10
73586;DHT22;61865;50.232;18.614;2023-05-29T11:20:14;21.20;26.40
73586;DHT22;61865;50.232;18.614;2023-05-29T11:22:53;21.10;25.80
73586;DHT22;61865;50.232;18.614;2023-05-29T11:25:19;21.10;23.40
73586;DHT22;61865;50.232;18.614;2023-05-29T11:27:44;21.20;28.50
73586;DHT22;61865;50.232;18.614;2023-05-29T11:30:07;21.20;23.20
73586;DHT22;61865;50.232;18.614;2023-05-29T11:32:30;21.10;23.70
73586;DHT22;61865;50.232;18.614;2023-05-29T11:34:56;21.20;24.30
73586;DHT22;61865;50.232;18.614;2023-05-29T11:37:22;21.30;24.00
73586;DHT22;61865;50.232;18.614;2023-05-29T11:39:45;21.30;24.30
73586;DHT22;61865;50.232;18.614;2023-05-29T11:42:07;21.10;21.90
73586;DHT22;61865;50.232;18.614;2023-05-29T11:44:30;21.20;22.40
73586;DHT22;61865;50.232;18.614;2023-05-29T11:47:00;21.10;23.70
73586;DHT22;61865;50.232;18.614;2023-05-29T11:49:27;21.20;22.20
73586;DHT22;61865;50.232;18.614;2023-05-29T11:51:49;21.20;25.90
73586;DHT22;61865;50.232;18.614;2023-05-29T11:54:13;21.40;23.60
73586;DHT22;61865;50.232;18.614;2023-05-29T11:56:35;21.30;25.60
73586;DHT22;61865;50.232;18.614;2023-05-29T11:59:01;21.40;22.00
73586;DHT22;61865;50.232;18.614;2023-05-29T12:01:26;21.50;22.80
73586;DHT22;61865;50.232;18.614;2023-05-29T12:03:49;21.60;24.40
73586;DHT22;61865;50.232;18.614;2023-05-29T12:06:11;21.60;23.40
73586;DHT22;61865;50.232;18.614;2023-05-29T12:08:34;21.60;22.10
73586;DHT22;61865;50.232;18.614;2023-05-29T12:10:57;21.60;22.20
73586;DHT22;61865;50.232;18.614;2023-05-29T12:13:19;21.50;26.00
73586;DHT22;61865;50.232;18.614;2023-05-29T12:15:41;21.40;24.80
73586;DHT22;61865;50.232;18.614;2023-05-29T12:18:03;21.40;23.60
73586;DHT22;61865;50.232;18.614;2023-05-29T12:20:25;21.40;24.70
73586;DHT22;61865;50.232;18.614;2023-05-29T12:22:48;21.50;24.50
73586;DHT22;61865;50.232;18.614;2023-05-29T12:25:11;21.40;22.20
73586;DHT22;61865;50.232;18.614;2023-05-29T12:27:35;21.70;25.60
73586;DHT22;61865;50.232;18.614;2023-05-29T12:30:02;22.00;22.80
73586;DHT22;61865;50.232;18.614;2023-05-29T12:32:24;21.80;22.20
73586;DHT22;61865;50.232;18.614;2023-05-29T12:34:49;21.80;23.50
73586;DHT22;61865;50.232;18.614;2023-05-29T12:37:11;22.00;22.60
73586;DHT22;61865;50.232;18.614;2023-05-29T12:39:35;22.10;23.80
73586;DHT22;61865;50.232;18.614;2023-05-29T12:41:57;22.10;25.10
73586;DHT22;61865;50.232;18.614;2023-05-29T12:44:21;22.20;24.80
73586;DHT22;61865;50.232;18.614;2023-05-29T12:46:43;21.90;21.90
73586;DHT22;61865;50.232;18.614;2023-05-29T12:49:11;21.90;24.60
73586;DHT22;61865;50.232;18.614;2023-05-29T12:51:34;22.10;24.00
73586;DHT22;61865;50.232;18.614;2023-05-29T12:53:56;22.40;23.10
73586;DHT22;61865;50.232;18.614;2023-05-29T12:56:19;22.70;22.10
73586;DHT22;61865;50.232;18.614;2023-05-29T12:58:41;22.90;21.20
73586;DHT22;61865;50.232;18.614;2023-05-29T13:01:04;23.10;21.30
73586;DHT22;61865;50.232;18.614;2023-05-29T13:03:28;23.00;23.50
73586;DHT22;61865;50.232;18.614;2023-05-29T13:05:50;22.80;21.40
73586;DHT22;61865;50.232;18.614;2023-05-29T13:08:13;22.60;22.70
73586;DHT22;61865;50.232;18.614;2023-05-29T13:10:35;22.50;26.00
73586;DHT22;61865;50.232;18.614;2023-05-29T13:12:57;22.50;23.70
73586;DHT22;61865;50.232;18.614;2023-05-29T13:15:20;22.30;23.30
73586;DHT22;61865;50.232;18.614;2023-05-29T13:17:44;22.30;24.80
73586;DHT22;61865;50.232;18.614;2023-05-29T13:20:08;22.10;23.40
73586;DHT22;61865;50.232;18.614;2023-05-29T13:22:30;22.20;23.90
73586;DHT22;61865;50.232;18.614;2023-05-29T13:24:53;22.10;22.30
73586;DHT22;61865;50.232;18.614;2023-05-29T13:27:15;22.10;22.50
73586;DHT22;61865;50.232;18.614;2023-05-29T13:29:37;22.00;24.20
73586;DHT22;61865;50.232;18.614;2023-05-29T13:31:59;22.10;23.00
73586;DHT22;61865;50.232;18.614;2023-05-29T13:34:23;22.10;21.60
73586;DHT22;61865;50.232;18.614;2023-05-29T13:36:49;22.10;22.50
73586;DHT22;61865;50.232;18.614;2023-05-29T13:39:11;22.10;21.80
73586;DHT22;61865;50.232;18.614;2023-05-29T13:41:33;22.20;22.20
73586;DHT22;61865;50.232;18.614;2023-05-29T13:43:55;22.30;22.50
73586;DHT22;61865;50.232;18.614;2023-05-29T13:46:17;22.40;21.40
73586;DHT22;61865;50.232;18.614;2023-05-29T13:48:39;22.40;21.70
73586;DHT22;61865;50.232;18.614;2023-05-29T13:51:03;22.20;22.60
73586;DHT22;61865;50.232;18.614;2023-05-29T13:53:25;22.10;24.30
73586;DHT22;61865;50.232;18.614;2023-05-29T13:55:47;22.10;22.60
73586;DHT22;61865;50.232;18.614;2023-05-29T13:58:09;22.20;21.20
73586;DHT22;61865;50.232;18.614;2023-05-29T14:00:31;22.10;24.10
73586;DHT22;61865;50.232;18.614;2023-05-29T14:02:53;22.00;22.00
73586;DHT22;61865;50.232;18.614;2023-05-29T14:05:15;22.00;24.00
73586;DHT22;61865;50.232;18.614;2023-05-29T14:07:38;22.10;22.30
73586;DHT22;61865;50.232;18.614;2023-05-29T14:10:00;22.20;23.90
73586;DHT22;61865;50.232;18.614;2023-05-29T14:12:22;22.30;23.70
73586;DHT22;61865;50.232;18.614;2023-05-29T14:14:44;22.30;22.80
73586;DHT22;61865;50.232;18.614;2023-05-29T14:17:07;22.30;21.70
73586;DHT22;61865;50.232;18.614;2023-05-29T14:19:29;22.20;22.50
73586;DHT22;61865;50.232;18.614;2023-05-29T14:21:51;22.30;23.70
73586;DHT22;61865;50.232;18.614;2023-05-29T14:24:15;22.50;24.30
73586;DHT22;61865;50.232;18.614;2023-05-29T14:26:38;22.40;22.90
73586;DHT22;61865;50.232;18.614;2023-05-29T14:29:00;22.30;22.90
73586;DHT22;61865;50.232;18.614;2023-05-29T14:31:22;22.30;21.70
73586;DHT22;61865;50.232;18.614;2023-05-29T14:33:44;22.20;22.10
73586;DHT22;61865;50.232;18.614;2023-05-29T14:36:06;22.20;22.50
73586;DHT22;61865;50.232;18.614;2023-05-29T14:38:28;22.30;23.40
73586;DHT22;61865;50.232;18.614;2023-05-29T14:40:52;22.30;22.90
73586;DHT22;61865;50.232;18.614;2023-05-29T14:43:14;22.50;21.90
73586;DHT22;61865;50.232;18.614;2023-05-29T14:45:36;22.40;22.60
73586;DHT22;61865;50.232;18.614;2023-05-29T14:47:58;22.30;22.60
73586;DHT22;61865;50.232;18.614;2023-05-29T14:50:21;22.40;23.40
73586;DHT22;61865;50.232;18.614;2023-05-29T14:52:43;22.50;22.40
73586;DHT22;61865;50.232;18.614;2023-05-29T14:55:06;22.50;21.80
73586;DHT22;61865;50.232;18.614;2023-05-29T14:57:29;22.50;23.20
73586;DHT22;61865;50.232;18.614;2023-05-29T14:59:53;22.40;22.40
73586;DHT22;61865;50.232;18.614;2023-05-29T15:02:15;22.30;21.30
73586;DHT22;61865;50.232;18.614;2023-05-29T15:04:37;22.30;20.60